sensor_id;sensor_type;location;lat;lon;timestamp;P1;durP1;ratioP1;P2;durP2;ratioP2
22236;SDS011;11287;48.122;11.536;2023-04-03T09:24:39;7.68;;;4.15;;
22236;SDS011;11287;48.122;11.536;2023-04-03T09:27:06;6.15;;;4.47;;
22236;SDS011;11287;48.122;11.536;2023-04-03T09:29:35;8.45;;;4.30;;
22236;SDS011;11287;48.122;11.536;2023-04-03T09:32:12;7.60;;;4.88;;
22236;SDS011;11287;48.122;11.536;2023-04-03T09:34:44;5.43;;;3.88;;
22236;SDS011;11287;48.122;11.536;2023-04-03T09:37:09;7.40;;;3.92;;
22236;SDS011;11287;48.122;11.536;2023-04-03T09:39:50;5.22;;;4.18;;
22236;SDS011;11287;48.122;11.536;2023-04-03T09:42:19;8.32;;;4.40;;
22236;SDS011;11287;48.122;11.536;2023-04-03T09:44:54;6.57;;;4.35;;
22236;SDS011;11287;48.122;11.536;2023-04-03T09:52:48;7.25;;;3.88;;
22236;SDS011;11287;48.122;11.536;2023-04-03T09:55:20;3.50;;;3.20;;
22236;SDS011;11287;48.122;11.536;2023-04-03T09:57:51;5.75;;;3.60;;
22236;SDS011;11287;48.122;11.536;2023-04-03T10:00:21;4.72;;;3.63;;
22236;SDS011;11287;48.122;11.536;2023-04-03T10:02:55;4.03;;;3.53;;
22236;SDS011;11287;48.122;11.536;2023-04-03T10:05:42;4.97;;;4.00;;
22236;SDS011;11287;48.122;11.536;2023-04-03T10:10:35;3.50;;;3.20;;
22236;SDS011;11287;48.122;11.536;2023-04-03T10:13:20;3.80;;;3.40;;
22236;SDS011;11287;48.122;11.536;2023-04-03T10:15:50;3.53;;;2.85;;
22236;SDS011;11287;48.122;11.536;2023-04-03T10:24:19;6.95;;;3.63;;
22236;SDS011;11287;48.122;11.536;2023-04-03T10:42:28;7.95;;;4.20;;
22236;SDS011;11287;48.122;11.536;2023-04-03T10:45:14;5.28;;;3.72;;
22236;SDS011;11287;48.122;11.536;2023-04-03T10:48:01;5.18;;;3.22;;
22236;SDS011;11287;48.122;11.536;2023-04-03T10:53:17;4.05;;;3.05;;
22236;SDS011;11287;48.122;11.536;2023-04-03T10:58:30;4.68;;;2.95;;
22236;SDS011;11287;48.122;11.536;2023-04-03T11:00:59;3.55;;;2.28;;
22236;SDS011;11287;48.122;11.536;2023-04-03T11:03:31;4.43;;;2.03;;
22236;SDS011;11287;48.122;11.536;2023-04-03T11:06:01;2.30;;;2.10;;
22236;SDS011;11287;48.122;11.536;2023-04-03T11:11:00;5.60;;;3.58;;
22236;SDS011;11287;48.122;11.536;2023-04-03T11:16:02;6.63;;;3.72;;
22236;SDS011;11287;48.122;11.536;2023-04-03T11:21:06;5.82;;;4.25;;
22236;SDS011;11287;48.122;11.536;2023-04-03T11:23:35;7.00;;;3.80;;
22236;SDS011;11287;48.122;11.536;2023-04-03T11:26:07;6.05;;;3.35;;
22236;SDS011;11287;48.122;11.536;2023-04-03T11:28:36;6.20;;;3.20;;
22236;SDS011;11287;48.122;11.536;2023-04-03T11:36:43;5.10;;;3.40;;
22236;SDS011;11287;48.122;11.536;2023-04-03T11:41:52;3.30;;;2.78;;
22236;SDS011;11287;48.122;11.536;2023-04-03T11:44:37;4.57;;;2.88;;
22236;SDS011;11287;48.122;11.536;2023-04-03T11:47:03;3.80;;;2.85;;
22236;SDS011;11287;48.122;11.536;2023-04-03T11:57:49;2.25;;;1.80;;
22236;SDS011;11287;48.122;11.536;2023-04-03T12:05:53;3.58;;;2.00;;
22236;SDS011;11287;48.122;11.536;2023-04-03T12:26:40;3.42;;;2.00;;
22236;SDS011;11287;48.122;11.536;2023-04-03T12:29:20;2.90;;;1.58;;
22236;SDS011;11287;48.122;11.536;2023-04-03T12:34:40;3.35;;;1.90;;
22236;SDS011;11287;48.122;11.536;2023-04-03T12:46:33;4.60;;;1.70;;
22236;SDS011;11287;48.122;11.536;2023-04-03T12:51:09;4.57;;;2.00;;
22236;SDS011;11287;48.122;11.536;2023-04-03T12:53:39;3.10;;;2.00;;
22236;SDS011;11287;48.122;11.536;2023-04-03T12:56:25;5.82;;;1.55;;
22236;SDS011;11287;48.122;11.536;2023-04-03T12:58:55;1.98;;;1.77;;
22236;SDS011;11287;48.122;11.536;2023-04-03T13:01:37;2.90;;;1.70;;
22236;SDS011;11287;48.122;11.536;2023-04-03T13:04:03;3.03;;;1.63;;
22236;SDS011;11287;48.122;11.536;2023-04-03T13:06:36;2.20;;;1.63;;
22236;SDS011;11287;48.122;11.536;2023-04-03T13:09:04;2.22;;;1.60;;
22236;SDS011;11287;48.122;11.536;2023-04-03T13:11:30;2.65;;;1.73;;
22236;SDS011;11287;48.122;11.536;2023-04-03T13:14:04;1.98;;;1.60;;
22236;SDS011;11287;48.122;11.536;2023-04-03T13:16:38;1.95;;;1.60;;
22236;SDS011;11287;48.122;11.536;2023-04-03T13:19:06;2.22;;;1.50;;
22236;SDS011;11287;48.122;11.536;2023-04-03T13:21:31;2.83;;;1.67;;
22236;SDS011;11287;48.122;11.536;2023-04-03T13:23:59;2.15;;;1.60;;
22236;SDS011;11287;48.122;11.536;2023-04-03T13:26:26;3.33;;;1.80;;
22236;SDS011;11287;48.122;11.536;2023-04-03T13:28:55;3.67;;;1.70;;
22236;SDS011;11287;48.122;11.536;2023-04-03T13:31:25;3.60;;;1.52;;
22236;SDS011;11287;48.122;11.536;2023-04-03T13:36:23;1.80;;;1.70;;
22236;SDS011;11287;48.122;11.536;2023-04-03T13:41:39;3.67;;;1.60;;
22236;SDS011;11287;48.122;11.536;2023-04-03T13:44:17;2.30;;;1.40;;
22236;SDS011;11287;48.122;11.536;2023-04-03T13:51:51;1.83;;;1.40;;
22236;SDS011;11287;48.122;11.536;2023-04-03T13:54:24;1.60;;;1.20;;
22236;SDS011;11287;48.122;11.536;2023-04-03T13:56:55;2.47;;;1.50;;
22236;SDS011;11287;48.122;11.536;2023-04-03T13:59:39;2.97;;;1.52;;
22236;SDS011;11287;48.122;11.536;2023-04-03T14:04:55;2.22;;;1.55;;
22236;SDS011;11287;48.122;11.536;2023-04-03T14:07:23;2.65;;;1.70;;
22236;SDS011;11287;48.122;11.536;2023-04-03T14:09:49;4.45;;;1.75;;
22236;SDS011;11287;48.122;11.536;2023-04-03T14:12:34;2.72;;;1.70;;
22236;SDS011;11287;48.122;11.536;2023-04-03T14:15:03;3.22;;;1.30;;
22236;SDS011;11287;48.122;11.536;2023-04-03T14:17:30;3.47;;;1.33;;
22236;SDS011;11287;48.122;11.536;2023-04-03T14:19:57;2.45;;;1.45;;
22236;SDS011;11287;48.122;11.536;2023-04-03T14:22:24;2.20;;;1.50;;
22236;SDS011;11287;48.122;11.536;2023-04-03T14:24:51;2.42;;;1.27;;
22236;SDS011;11287;48.122;11.536;2023-04-03T14:29:58;1.45;;;1.20;;
22236;SDS011;11287;48.122;11.536;2023-04-03T14:32:25;3.78;;;1.40;;
22236;SDS011;11287;48.122;11.536;2023-04-03T14:34:51;3.38;;;1.35;;
22236;SDS011;11287;48.122;11.536;2023-04-03T14:37:25;1.65;;;1.20;;
22236;SDS011;11287;48.122;11.536;2023-04-03T14:39:52;1.40;;;1.25;;
22236;SDS011;11287;48.122;11.536;2023-04-03T14:42:23;2.42;;;1.42;;
22236;SDS011;11287;48.122;11.536;2023-04-03T14:44:50;1.88;;;1.20;;
22236;SDS011;11287;48.122;11.536;2023-04-03T14:47:17;3.60;;;1.35;;
22236;SDS011;11287;48.122;11.536;2023-04-03T14:49:45;3.58;;;1.42;;
22236;SDS011;11287;48.122;11.536;2023-04-03T14:52:21;2.33;;;1.27;;
22236;SDS011;11287;48.122;11.536;2023-04-03T14:54:49;2.97;;;1.38;;
22236;SDS011;11287;48.122;11.536;2023-04-03T14:57:15;1.40;;;1.00;;
22236;SDS011;11287;48.122;11.536;2023-04-03T14:59:42;1.58;;;1.30;;
22236;SDS011;11287;48.122;11.536;2023-04-03T15:02:11;1.85;;;1.40;;
22236;SDS011;11287;48.122;11.536;2023-04-03T15:04:49;2.13;;;1.20;;
22236;SDS011;11287;48.122;11.536;2023-04-03T15:07:15;2.67;;;1.60;;
22236;SDS011;11287;48.122;11.536;2023-04-03T15:09:41;3.28;;;1.33;;
22236;SDS011;11287;48.122;11.536;2023-04-03T15:12:07;1.77;;;1.40;;
22236;SDS011;11287;48.122;11.536;2023-04-03T15:14:33;1.77;;;1.30;;
22236;SDS011;11287;48.122;11.536;2023-04-03T15:16:59;1.52;;;1.17;;
22236;SDS011;11287;48.122;11.536;2023-04-03T15:19:24;1.40;;;1.10;;
22236;SDS011;11287;48.122;11.536;2023-04-03T15:21:49;3.75;;;1.50;;
22236;SDS011;11287;48.122;11.536;2023-04-03T15:24:15;1.90;;;1.20;;
22236;SDS011;11287;48.122;11.536;2023-04-03T15:26:40;2.00;;;1.45;;
22236;SDS011;11287;48.122;11.536;2023-04-03T15:29:06;3.78;;;1.30;;
22236;SDS011;11287;48.122;11.536;2023-04-03T15:31:31;5.28;;;1.25;;
22236;SDS011;11287;48.122;11.536;2023-04-03T15:33:57;2.13;;;1.33;;
22236;SDS011;11287;48.122;11.536;2023-04-03T15:36:22;2.85;;;1.30;;
22236;SDS011;11287;48.122;11.536;2023-04-03T15:38:48;2.58;;;1.10;;
22236;SDS011;11287;48.122;11.536;2023-04-03T15:41:13;1.48;;;1.10;;
22236;SDS011;11287;48.122;11.536;2023-04-03T15:43:38;1.63;;;1.50;;
22236;SDS011;11287;48.122;11.536;2023-04-03T15:46:04;1.52;;;1.27;;
22236;SDS011;11287;48.122;11.536;2023-04-03T15:48:29;1.52;;;1.10;;
22236;SDS011;11287;48.122;11.536;2023-04-03T15:50:55;1.88;;;1.20;;
22236;SDS011;11287;48.122;11.536;2023-04-03T15:53:20;1.45;;;1.10;;
22236;SDS011;11287;48.122;11.536;2023-04-03T15:55:46;1.42;;;1.20;;
22236;SDS011;11287;48.122;11.536;2023-04-03T15:58:11;1.63;;;1.13;;
22236;SDS011;11287;48.122;11.536;2023-04-03T16:00:36;2.25;;;1.25;;
22236;SDS011;11287;48.122;11.536;2023-04-03T16:03:07;5.03;;;1.48;;
22236;SDS011;11287;48.122;11.536;2023-04-03T16:05:35;2.65;;;1.35;;
22236;SDS011;11287;48.122;11.536;2023-04-03T16:08:01;1.88;;;1.35;;
22236;SDS011;11287;48.122;11.536;2023-04-03T16:10:26;2.88;;;0.95;;
22236;SDS011;11287;48.122;11.536;2023-04-03T16:12:52;1.73;;;1.30;;
22236;SDS011;11287;48.122;11.536;2023-04-03T16:15:17;3.53;;;1.13;;
22236;SDS011;11287;48.122;11.536;2023-04-03T16:17:43;2.17;;;1.33;;
22236;SDS011;11287;48.122;11.536;2023-04-03T16:20:09;1.55;;;1.10;;
22236;SDS011;11287;48.122;11.536;2023-04-03T16:22:35;2.72;;;1.38;;
22236;SDS011;11287;48.122;11.536;2023-04-03T16:25:01;3.55;;;1.35;;
22236;SDS011;11287;48.122;11.536;2023-04-03T16:27:26;2.17;;;1.45;;
22236;SDS011;11287;48.122;11.536;2023-04-03T16:29:53;2.90;;;1.40;;
22236;SDS011;11287;48.122;11.536;2023-04-03T16:32:19;2.95;;;1.70;;
22236;SDS011;11287;48.122;11.536;2023-04-03T16:34:45;2.78;;;1.48;;
22236;SDS011;11287;48.122;11.536;2023-04-03T16:37:10;4.53;;;1.38;;
22236;SDS011;11287;48.122;11.536;2023-04-03T16:39:35;1.33;;;1.15;;
22236;SDS011;11287;48.122;11.536;2023-04-03T16:42:01;1.83;;;1.30;;
22236;SDS011;11287;48.122;11.536;2023-04-03T16:44:26;5.05;;;1.38;;
22236;SDS011;11287;48.122;11.536;2023-04-03T16:46:52;4.95;;;1.30;;
22236;SDS011;11287;48.122;11.536;2023-04-03T16:49:17;2.55;;;1.17;;
22236;SDS011;11287;48.122;11.536;2023-04-03T16:51:42;2.95;;;1.42;;
22236;SDS011;11287;48.122;11.536;2023-04-03T16:54:08;1.92;;;1.27;;
22236;SDS011;11287;48.122;11.536;2023-04-03T16:56:35;1.98;;;1.42;;
22236;SDS011;11287;48.122;11.536;2023-04-03T16:59:00;2.50;;;1.20;;
22236;SDS011;11287;48.122;11.536;2023-04-03T17:01:26;2.33;;;1.25;;
22236;SDS011;11287;48.122;11.536;2023-04-03T17:03:51;2.25;;;1.17;;
22236;SDS011;11287;48.122;11.536;2023-04-03T17:06:18;2.38;;;1.63;;
22236;SDS011;11287;48.122;11.536;2023-04-03T17:08:45;2.47;;;1.70;;
22236;SDS011;11287;48.122;11.536;2023-04-03T17:11:11;2.90;;;1.40;;
22236;SDS011;11287;48.122;11.536;2023-04-03T17:13:37;6.47;;;1.42;;
22236;SDS011;11287;48.122;11.536;2023-04-03T17:16:04;2.78;;;1.48;;
22236;SDS011;11287;48.122;11.536;2023-04-03T17:18:31;3.20;;;1.70;;
22236;SDS011;11287;48.122;11.536;2023-04-03T17:20:57;2.63;;;1.75;;
22236;SDS011;11287;48.122;11.536;2023-04-03T17:23:25;4.93;;;1.55;;
22236;SDS011;11287;48.122;11.536;2023-04-03T17:25:51;2.55;;;1.27;;
22236;SDS011;11287;48.122;11.536;2023-04-03T17:28:16;2.55;;;1.75;;
22236;SDS011;11287;48.122;11.536;2023-04-03T17:30:42;4.63;;;1.23;;
22236;SDS011;11287;48.122;11.536;2023-04-03T17:33:07;1.92;;;1.23;;
22236;SDS011;11287;48.122;11.536;2023-04-03T17:35:33;3.10;;;1.20;;
22236;SDS011;11287;48.122;11.536;2023-04-03T17:37:58;4.47;;;1.55;;
22236;SDS011;11287;48.122;11.536;2023-04-03T17:40:24;2.80;;;1.60;;
22236;SDS011;11287;48.122;11.536;2023-04-03T17:42:49;4.45;;;2.22;;
22236;SDS011;11287;48.122;11.536;2023-04-03T17:45:15;2.60;;;1.70;;
22236;SDS011;11287;48.122;11.536;2023-04-03T17:47:40;4.13;;;1.80;;
22236;SDS011;11287;48.122;11.536;2023-04-03T17:50:06;2.60;;;1.45;;
22236;SDS011;11287;48.122;11.536;2023-04-03T17:52:31;4.50;;;1.95;;
22236;SDS011;11287;48.122;11.536;2023-04-03T17:54:57;2.47;;;1.67;;
22236;SDS011;11287;48.122;11.536;2023-04-03T17:57:22;4.25;;;1.80;;
22236;SDS011;11287;48.122;11.536;2023-04-03T17:59:47;2.95;;;1.65;;
22236;SDS011;11287;48.122;11.536;2023-04-03T18:02:12;2.50;;;1.35;;
22236;SDS011;11287;48.122;11.536;2023-04-03T18:04:38;2.47;;;1.77;;
22236;SDS011;11287;48.122;11.536;2023-04-03T18:07:03;2.53;;;1.30;;
22236;SDS011;11287;48.122;11.536;2023-04-03T18:09:31;2.00;;;1.50;;
22236;SDS011;11287;48.122;11.536;2023-04-03T18:11:57;3.47;;;1.30;;
22236;SDS011;11287;48.122;11.536;2023-04-03T18:14:25;4.57;;;1.70;;
22236;SDS011;11287;48.122;11.536;2023-04-03T18:16:51;1.75;;;1.40;;
22236;SDS011;11287;48.122;11.536;2023-04-03T18:19:16;1.63;;;1.30;;
22236;SDS011;11287;48.122;11.536;2023-04-03T18:21:41;2.85;;;1.52;;
22236;SDS011;11287;48.122;11.536;2023-04-03T18:24:10;2.92;;;1.42;;
22236;SDS011;11287;48.122;11.536;2023-04-03T18:26:36;5.05;;;1.73;;
22236;SDS011;11287;48.122;11.536;2023-04-03T18:29:02;2.58;;;1.33;;
22236;SDS011;11287;48.122;11.536;2023-04-03T18:31:29;3.75;;;2.00;;
22236;SDS011;11287;48.122;11.536;2023-04-03T18:33:56;2.42;;;1.40;;
22236;SDS011;11287;48.122;11.536;2023-04-03T18:36:23;2.42;;;1.88;;
22236;SDS011;11287;48.122;11.536;2023-04-03T18:38:49;3.38;;;1.70;;
22236;SDS011;11287;48.122;11.536;2023-04-03T18:41:14;2.72;;;1.80;;
22236;SDS011;11287;48.122;11.536;2023-04-03T18:43:40;2.35;;;1.67;;
22236;SDS011;11287;48.122;11.536;2023-04-03T18:46:05;3.22;;;1.77;;
22236;SDS011;11287;48.122;11.536;2023-04-03T18:48:34;2.05;;;1.38;;
22236;SDS011;11287;48.122;11.536;2023-04-03T18:51:00;4.03;;;1.75;;
22236;SDS011;11287;48.122;11.536;2023-04-03T18:53:26;4.05;;;2.10;;
22236;SDS011;11287;48.122;11.536;2023-04-03T18:55:51;2.75;;;1.80;;
22236;SDS011;11287;48.122;11.536;2023-04-03T18:58:17;1.85;;;1.38;;
22236;SDS011;11287;48.122;11.536;2023-04-03T19:00:42;5.82;;;1.85;;
22236;SDS011;11287;48.122;11.536;2023-04-03T19:03:08;2.90;;;1.42;;
22236;SDS011;11287;48.122;11.536;2023-04-03T19:05:34;2.67;;;1.55;;
22236;SDS011;11287;48.122;11.536;2023-04-03T19:08:00;1.63;;;1.15;;
22236;SDS011;11287;48.122;11.536;2023-04-03T19:10:25;2.75;;;1.80;;
22236;SDS011;11287;48.122;11.536;2023-04-03T19:12:51;2.55;;;1.48;;
22236;SDS011;11287;48.122;11.536;2023-04-03T19:15:18;3.50;;;1.85;;
22236;SDS011;11287;48.122;11.536;2023-04-03T19:17:44;5.15;;;1.80;;
22236;SDS011;11287;48.122;11.536;2023-04-03T19:20:10;4.18;;;1.67;;
22236;SDS011;11287;48.122;11.536;2023-04-03T19:22:37;3.25;;;1.55;;
22236;SDS011;11287;48.122;11.536;2023-04-03T19:25:03;1.63;;;1.38;;
22236;SDS011;11287;48.122;11.536;2023-04-03T19:27:29;2.97;;;1.33;;
22236;SDS011;11287;48.122;11.536;2023-04-03T19:29:54;2.38;;;1.60;;
22236;SDS011;11287;48.122;11.536;2023-04-03T19:32:19;1.52;;;1.05;;
22236;SDS011;11287;48.122;11.536;2023-04-03T19:34:45;3.00;;;1.75;;
22236;SDS011;11287;48.122;11.536;2023-04-03T19:37:10;4.85;;;1.23;;
22236;SDS011;11287;48.122;11.536;2023-04-03T19:39:36;4.70;;;2.08;;
22236;SDS011;11287;48.122;11.536;2023-04-03T19:42:02;2.88;;;2.00;;
22236;SDS011;11287;48.122;11.536;2023-04-03T19:44:29;4.07;;;2.08;;
22236;SDS011;11287;48.122;11.536;2023-04-03T19:46:57;5.82;;;1.80;;
22236;SDS011;11287;48.122;11.536;2023-04-03T19:49:22;2.47;;;1.65;;
22236;SDS011;11287;48.122;11.536;2023-04-03T19:51:48;7.32;;;1.90;;
22236;SDS011;11287;48.122;11.536;2023-04-03T19:54:13;2.17;;;1.70;;
22236;SDS011;11287;48.122;11.536;2023-04-03T19:56:38;3.78;;;1.77;;
22236;SDS011;11287;48.122;11.536;2023-04-03T19:59:04;2.95;;;1.50;;
22236;SDS011;11287;48.122;11.536;2023-04-03T20:01:29;2.22;;;1.52;;
22236;SDS011;11287;48.122;11.536;2023-04-03T20:03:55;4.30;;;1.80;;
22236;SDS011;11287;48.122;11.536;2023-04-03T20:06:21;4.45;;;2.00;;
22236;SDS011;11287;48.122;11.536;2023-04-03T20:08:46;3.35;;;2.20;;
22236;SDS011;11287;48.122;11.536;2023-04-03T20:11:11;4.40;;;1.90;;
22236;SDS011;11287;48.122;11.536;2023-04-03T20:13:37;1.98;;;1.73;;
22236;SDS011;11287;48.122;11.536;2023-04-03T20:16:06;4.13;;;2.45;;
22236;SDS011;11287;48.122;11.536;2023-04-03T20:18:32;4.13;;;2.28;;
22236;SDS011;11287;48.122;11.536;2023-04-03T20:20:59;4.38;;;2.53;;
22236;SDS011;11287;48.122;11.536;2023-04-03T20:23:25;5.20;;;2.30;;
22236;SDS011;11287;48.122;11.536;2023-04-03T20:25:52;6.43;;;2.28;;
22236;SDS011;11287;48.122;11.536;2023-04-03T20:28:19;3.17;;;2.35;;
22236;SDS011;11287;48.122;11.536;2023-04-03T20:30:44;4.95;;;2.42;;
22236;SDS011;11287;48.122;11.536;2023-04-03T20:33:10;7.20;;;2.20;;
22236;SDS011;11287;48.122;11.536;2023-04-03T20:35:36;5.35;;;2.90;;
22236;SDS011;11287;48.122;11.536;2023-04-03T20:38:01;3.20;;;2.22;;
22236;SDS011;11287;48.122;11.536;2023-04-03T20:40:30;3.97;;;2.22;;
22236;SDS011;11287;48.122;11.536;2023-04-03T20:42:56;3.00;;;2.20;;
22236;SDS011;11287;48.122;11.536;2023-04-03T20:45:22;5.68;;;2.90;;
22236;SDS011;11287;48.122;11.536;2023-04-03T20:47:48;4.28;;;2.50;;
22236;SDS011;11287;48.122;11.536;2023-04-03T20:50:15;12.75;;;4.90;;
22236;SDS011;11287;48.122;11.536;2023-04-03T20:52:40;5.55;;;3.08;;
22236;SDS011;11287;48.122;11.536;2023-04-03T20:55:06;4.38;;;2.83;;
22236;SDS011;11287;48.122;11.536;2023-04-03T20:57:32;5.90;;;2.95;;
22236;SDS011;11287;48.122;11.536;2023-04-03T20:59:58;5.97;;;2.80;;
22236;SDS011;11287;48.122;11.536;2023-04-03T21:02:23;4.35;;;2.50;;
22236;SDS011;11287;48.122;11.536;2023-04-03T21:04:51;5.07;;;3.17;;
22236;SDS011;11287;48.122;11.536;2023-04-03T21:21:25;8.05;;;2.25;;
22236;SDS011;11287;48.122;11.536;2023-04-03T21:23:51;2.50;;;2.03;;
22236;SDS011;11287;48.122;11.536;2023-04-03T21:26:17;3.55;;;1.95;;
22236;SDS011;11287;48.122;11.536;2023-04-03T21:28:44;5.90;;;2.20;;
22236;SDS011;11287;48.122;11.536;2023-04-03T21:31:09;5.10;;;2.60;;
22236;SDS011;11287;48.122;11.536;2023-04-03T21:33:35;4.03;;;2.08;;
22236;SDS011;11287;48.122;11.536;2023-04-03T21:36:03;2.95;;;2.33;;
22236;SDS011;11287;48.122;11.536;2023-04-03T21:38:29;5.07;;;2.20;;
22236;SDS011;11287;48.122;11.536;2023-04-03T21:40:56;3.85;;;2.22;;
22236;SDS011;11287;48.122;11.536;2023-04-03T21:43:24;5.05;;;2.25;;
22236;SDS011;11287;48.122;11.536;2023-04-03T21:45:54;3.83;;;2.35;;
22236;SDS011;11287;48.122;11.536;2023-04-03T21:48:20;3.00;;;2.03;;
22236;SDS011;11287;48.122;11.536;2023-04-03T21:50:46;5.68;;;2.05;;
22236;SDS011;11287;48.122;11.536;2023-04-03T21:53:13;4.57;;;2.50;;
22236;SDS011;11287;48.122;11.536;2023-04-03T21:55:39;4.28;;;2.30;;
22236;SDS011;11287;48.122;11.536;2023-04-03T21:58:04;4.65;;;2.10;;
22236;SDS011;11287;48.122;11.536;2023-04-03T22:00:30;3.95;;;2.13;;
22236;SDS011;11287;48.122;11.536;2023-04-03T22:02:55;4.82;;;2.00;;
22236;SDS011;11287;48.122;11.536;2023-04-03T22:05:21;4.15;;;1.98;;
22236;SDS011;11287;48.122;11.536;2023-04-03T22:07:46;3.65;;;2.30;;
22236;SDS011;11287;48.122;11.536;2023-04-03T22:10:12;4.57;;;2.22;;
22236;SDS011;11287;48.122;11.536;2023-04-03T22:12:39;4.10;;;2.35;;
22236;SDS011;11287;48.122;11.536;2023-04-03T22:15:05;3.38;;;1.77;;
22236;SDS011;11287;48.122;11.536;2023-04-03T22:17:31;6.15;;;2.50;;
22236;SDS011;11287;48.122;11.536;2023-04-03T22:19:56;5.22;;;2.22;;
22236;SDS011;11287;48.122;11.536;2023-04-03T22:22:22;4.18;;;2.10;;
22236;SDS011;11287;48.122;11.536;2023-04-03T22:24:48;5.03;;;1.90;;
22236;SDS011;11287;48.122;11.536;2023-04-03T22:27:14;3.28;;;2.30;;
22236;SDS011;11287;48.122;11.536;2023-04-03T22:29:39;5.80;;;2.17;;
22236;SDS011;11287;48.122;11.536;2023-04-03T22:32:05;6.13;;;2.22;;
22236;SDS011;11287;48.122;11.536;2023-04-03T22:34:30;4.32;;;2.45;;
22236;SDS011;11287;48.122;11.536;2023-04-03T22:36:56;5.60;;;2.30;;
22236;SDS011;11287;48.122;11.536;2023-04-03T22:39:21;2.60;;;2.17;;
22236;SDS011;11287;48.122;11.536;2023-04-03T22:41:46;3.58;;;2.00;;
22236;SDS011;11287;48.122;11.536;2023-04-03T22:44:12;4.30;;;2.30;;
22236;SDS011;11287;48.122;11.536;2023-04-03T22:46:37;2.78;;;1.95;;
22236;SDS011;11287;48.122;11.536;2023-04-03T22:49:03;1.65;;;1.38;;
22236;SDS011;11287;48.122;11.536;2023-04-03T22:51:28;3.03;;;2.08;;
22236;SDS011;11287;48.122;11.536;2023-04-03T22:53:53;3.97;;;1.70;;
22236;SDS011;11287;48.122;11.536;2023-04-03T22:56:19;2.38;;;1.67;;
22236;SDS011;11287;48.122;11.536;2023-04-03T22:58:45;4.72;;;2.00;;
22236;SDS011;11287;48.122;11.536;2023-04-03T23:01:12;8.18;;;2.85;;
22236;SDS011;11287;48.122;11.536;2023-04-03T23:03:39;3.65;;;1.90;;
22236;SDS011;11287;48.122;11.536;2023-04-03T23:06:05;3.15;;;2.00;;
22236;SDS011;11287;48.122;11.536;2023-04-03T23:08:32;4.97;;;2.10;;
22236;SDS011;11287;48.122;11.536;2023-04-03T23:10:59;5.05;;;1.90;;
22236;SDS011;11287;48.122;11.536;2023-04-03T23:13:25;2.25;;;1.67;;
22236;SDS011;11287;48.122;11.536;2023-04-03T23:15:51;4.75;;;2.35;;
22236;SDS011;11287;48.122;11.536;2023-04-03T23:18:28;2.60;;;1.92;;
22236;SDS011;11287;48.122;11.536;2023-04-03T23:20:54;2.90;;;1.80;;
22236;SDS011;11287;48.122;11.536;2023-04-03T23:23:23;4.07;;;1.30;;
22236;SDS011;11287;48.122;11.536;2023-04-03T23:25:51;5.22;;;1.58;;
22236;SDS011;11287;48.122;11.536;2023-04-03T23:28:21;2.72;;;1.88;;
22236;SDS011;11287;48.122;11.536;2023-04-03T23:30:46;3.33;;;1.83;;
22236;SDS011;11287;48.122;11.536;2023-04-03T23:33:12;1.73;;;1.58;;
22236;SDS011;11287;48.122;11.536;2023-04-03T23:35:41;4.43;;;1.98;;
22236;SDS011;11287;48.122;11.536;2023-04-03T23:38:10;4.45;;;1.50;;
22236;SDS011;11287;48.122;11.536;2023-04-03T23:40:35;3.20;;;1.58;;
22236;SDS011;11287;48.122;11.536;2023-04-03T23:43:01;3.22;;;2.05;;
22236;SDS011;11287;48.122;11.536;2023-04-03T23:45:26;3.53;;;2.00;;
22236;SDS011;11287;48.122;11.536;2023-04-03T23:47:51;2.47;;;1.48;;
22236;SDS011;11287;48.122;11.536;2023-04-03T23:50:17;3.25;;;1.48;;
22236;SDS011;11287;48.122;11.536;2023-04-03T23:52:42;4.90;;;1.70;;
22236;SDS011;11287;48.122;11.536;2023-04-03T23:55:07;2.33;;;1.85;;
22236;SDS011;11287;48.122;11.536;2023-04-03T23:57:33;4.40;;;1.50;;
22236;SDS011;11287;48.122;11.536;2023-04-03T23:59:58;3.17;;;1.75;;
